Time;durP1;ratioP1;P1;durP2;ratioP2;P2;SDS_P1;SDS_P2;PMS_P1;PMS_P2;Temp;Humidity;BMP_temperature;BMP_pressure;BME280_temperature;BME280_humidity;BME280_pressure;Samples;Min_cycle;Max_cycle;Signal;HPM_P1;HPM_P2
2021/07/01 00:01:42;;;;;;;;;;;12.00;99.90;;;;;;4900299;29;20029;-75
2021/07/01 00:04:13;;;;;;;;;;;12.00;99.90;;;;;;4901118;29;19931;-76
2021/07/01 00:06:40;;;;;;;;;;;12.00;99.90;;;;;;4900349;29;19962;-75
2021/07/01 00:09:16;;;;;;;;;;;12.00;99.90;;;;;;4900254;29;19927;-75
2021/07/01 00:11:43;;;;;;;;;;;12.00;99.90;;;;;;4914777;29;19927;-75
2021/07/01 00:14:10;;;;;;;;;;;12.00;99.90;;;;;;4884453;29;20003;-75
2021/07/01 00:16:37;;;;;;;;;;;11.90;99.90;;;;;;4884609;29;20350;-75
2021/07/01 00:19:04;;;;;;;;;;;11.90;99.90;;;;;;4900133;29;19970;-75
2021/07/01 00:21:36;;;;;;;;;;;11.90;99.90;;;;;;4885150;29;19931;-75
2021/07/01 00:24:03;;;;;;;;;;;11.90;99.90;;;;;;4899848;29;20018;-75
2021/07/01 00:26:29;;;;;;;;;;;11.90;99.90;;;;;;4900135;29;20017;-75
2021/07/01 00:28:56;;;;;;;;;;;11.90;99.90;;;;;;4899696;29;20394;-75
2021/07/01 00:31:23;;;;;;;;;;;11.90;99.90;;;;;;4899675;29;19931;-75
2021/07/01 00:33:50;;;;;;;;;;;11.90;99.90;;;;;;4899585;29;19927;-75
2021/07/01 00:36:17;;;;;;;;;;;11.90;99.90;;;;;;4884683;29;20022;-75
2021/07/01 00:38:44;;;;;;;;;;;11.90;99.90;;;;;;4899665;29;19928;-75
2021/07/01 00:41:16;;;;;;;;;;;11.90;99.90;;;;;;4899467;29;19927;-75
2021/07/01 00:43:49;;;;;;;;;;;11.90;99.90;;;;;;4899475;29;20029;-75
2021/07/01 00:46:20;;;;;;;;;;;12.00;99.90;;;;;;4900633;29;20373;-75
2021/07/01 00:48:48;;;;;;;;;;;11.90;99.90;;;;;;4899641;29;20397;-75
2021/07/01 00:51:19;;;;;;;;;;;11.90;99.90;;;;;;4884834;29;20397;-75
2021/07/01 00:53:46;;;;;;;;;;;11.90;99.90;;;;;;4884010;29;19975;-75
2021/07/01 00:56:15;;;;;;;;;;;11.90;99.90;;;;;;4884166;29;20502;-75
2021/07/01 00:58:42;;;;;;;;;;;11.90;99.90;;;;;;4883942;29;19927;-75
2021/07/01 01:01:08;;;;;;;;;;;11.90;99.90;;;;;;4915827;29;19934;-75
2021/07/01 01:03:42;;;;;;;;;;;11.80;99.90;;;;;;4883894;29;19927;-75
2021/07/01 01:06:14;;;;;;;;;;;11.80;99.90;;;;;;4898755;29;20334;-75
2021/07/01 01:08:47;;;;;;;;;;;11.80;99.90;;;;;;4898561;29;20468;-75
2021/07/01 01:11:24;;;;;;;;;;;11.80;99.90;;;;;;4898498;29;19927;-75
2021/07/01 01:14:04;;;;;;;;;;;11.80;99.90;;;;;;4885014;29;19927;-75
2021/07/01 01:16:33;;;;;;;;;;;11.80;99.90;;;;;;4899661;29;19931;-75
2021/07/01 01:19:07;;;;;;;;;;;11.80;99.90;;;;;;4898990;29;19934;-75
2021/07/01 01:21:43;;;;;;;;;;;11.80;99.90;;;;;;4884320;29;20010;-75
2021/07/01 01:24:09;;;;;;;;;;;11.70;99.90;;;;;;4882986;29;20017;-75
2021/07/01 01:26:38;;;;;;;;;;;11.70;99.90;;;;;;4898575;29;19998;-75
2021/07/01 01:29:05;;;;;;;;;;;11.70;99.90;;;;;;4898405;29;20386;-75
2021/07/01 01:31:32;;;;;;;;;;;11.70;99.90;;;;;;4882669;29;19937;-75
2021/07/01 01:33:59;;;;;;;;;;;11.70;99.90;;;;;;4898140;29;20026;-75
2021/07/01 01:36:31;;;;;;;;;;;11.80;99.90;;;;;;4884066;29;20006;-76
2021/07/01 01:38:58;;;;;;;;;;;11.80;99.90;;;;;;4883357;29;19931;-75
2021/07/01 01:41:46;;;;;;;;;;;11.70;99.90;;;;;;4901684;29;20317;-75
2021/07/01 01:44:13;;;;;;;;;;;11.70;99.90;;;;;;4883071;29;20012;-75
2021/07/01 01:46:45;;;;;;;;;;;11.80;99.90;;;;;;4898261;29;19927;-75
2021/07/01 01:49:13;;;;;;;;;;;11.80;99.90;;;;;;4899008;29;19927;-75
2021/07/01 01:51:41;;;;;;;;;;;11.80;99.90;;;;;;4898464;29;19935;-75
2021/07/01 01:54:08;;;;;;;;;;;11.80;99.90;;;;;;4883145;29;19971;-75
2021/07/01 01:56:45;;;;;;;;;;;11.80;99.90;;;;;;4883668;29;19931;-75
2021/07/01 01:59:31;;;;;;;;;;;11.80;99.90;;;;;;4885742;29;20425;-75
2021/07/01 02:02:16;;;;;;;;;;;11.80;99.90;;;;;;4915808;29;19934;-75
2021/07/01 02:05:04;;;;;;;;;;;11.80;99.90;;;;;;4901426;29;19927;-75
2021/07/01 02:07:36;;;;;;;;;;;11.80;99.90;;;;;;4898713;29;19934;-75
2021/07/01 02:10:12;;;;;;;;;;;11.80;99.90;;;;;;4898658;29;20401;-75
2021/07/01 02:12:39;;;;;;;;;;;11.80;99.90;;;;;;4898212;29;20009;-75
2021/07/01 02:15:11;;;;;;;;;;;11.80;99.90;;;;;;4899184;29;20296;-75
2021/07/01 02:17:47;;;;;;;;;;;11.90;99.90;;;;;;4902461;29;19927;-75
2021/07/01 02:20:16;;;;;;;;;;;11.90;99.90;;;;;;4902185;29;19935;-75
2021/07/01 02:22:45;;;;;;;;;;;11.90;99.90;;;;;;4901952;29;19974;-76
2021/07/01 02:25:11;;;;;;;;;;;11.90;99.90;;;;;;4902397;29;19927;-75
2021/07/01 02:28:00;;;;;;;;;;;11.90;99.90;;;;;;4889688;29;20010;-75
2021/07/01 02:30:27;;;;;;;;;;;12.00;99.90;;;;;;4902234;29;19927;-75
2021/07/01 02:32:54;;;;;;;;;;;12.00;99.90;;;;;;4901735;29;19973;-75
2021/07/01 02:35:22;;;;;;;;;;;12.00;99.90;;;;;;4886559;29;19966;-75
2021/07/01 02:38:07;;;;;;;;;;;12.00;99.90;;;;;;4904951;29;19934;-75
2021/07/01 02:40:38;;;;;;;;;;;12.00;99.90;;;;;;4901973;29;19927;-76
2021/07/01 02:43:11;;;;;;;;;;;12.00;99.90;;;;;;4886892;29;19980;-75
2021/07/01 02:45:52;;;;;;;;;;;12.00;99.90;;;;;;4888142;29;19927;-76
2021/07/01 02:48:19;;;;;;;;;;;12.00;99.90;;;;;;4901932;29;19927;-75
2021/07/01 02:50:48;;;;;;;;;;;12.00;99.90;;;;;;4886704;29;20343;-75
2021/07/01 02:53:20;;;;;;;;;;;12.00;99.90;;;;;;4886805;29;20036;-75
2021/07/01 02:55:47;;;;;;;;;;;12.00;99.90;;;;;;4886200;29;19927;-75
2021/07/01 02:58:19;;;;;;;;;;;12.00;99.90;;;;;;4902002;29;20305;-75
2021/07/01 03:01:12;;;;;;;;;;;12.00;99.90;;;;;;4917982;29;20017;-75
2021/07/01 03:03:39;;;;;;;;;;;12.00;99.90;;;;;;4886079;29;19927;-75
2021/07/01 03:06:16;;;;;;;;;;;12.10;99.90;;;;;;4903308;29;20007;-75
2021/07/01 03:08:43;;;;;;;;;;;12.00;99.90;;;;;;4901596;29;19934;-75
2021/07/01 03:11:10;;;;;;;;;;;12.10;99.90;;;;;;4885204;29;19937;-75
2021/07/01 03:13:42;;;;;;;;;;;12.10;99.90;;;;;;4886621;29;19927;-75
2021/07/01 03:16:19;;;;;;;;;;;12.10;99.90;;;;;;4901557;29;19927;-75
2021/07/01 03:18:49;;;;;;;;;;;12.00;99.90;;;;;;4901806;29;19970;-75
2021/07/01 03:21:35;;;;;;;;;;;12.00;99.90;;;;;;4904030;29;19938;-75
2021/07/01 03:24:06;;;;;;;;;;;12.00;99.90;;;;;;4901055;29;20275;-75
2021/07/01 03:26:38;;;;;;;;;;;12.00;99.90;;;;;;4900054;29;19927;-75
2021/07/01 03:29:07;;;;;;;;;;;12.00;99.90;;;;;;4901216;29;19927;-75
2021/07/01 03:31:39;;;;;;;;;;;12.00;99.90;;;;;;4885956;29;19927;-75
2021/07/01 03:34:11;;;;;;;;;;;12.00;99.90;;;;;;4886062;29;19927;-75
2021/07/01 03:36:39;;;;;;;;;;;12.00;99.90;;;;;;4901022;29;19978;-75
2021/07/01 03:39:44;;;;;;;;;;;12.00;99.90;;;;;;4859515;29;19931;-75
2021/07/01 03:42:21;;;;;;;;;;;12.00;99.90;;;;;;4829465;29;20013;-75
2021/07/01 03:44:53;;;;;;;;;;;12.00;99.90;;;;;;4876890;29;19927;-75
2021/07/01 03:47:25;;;;;;;;;;;12.00;99.90;;;;;;4886018;29;19934;-75
2021/07/01 03:49:52;;;;;;;;;;;12.00;99.90;;;;;;4885082;29;20383;-75
2021/07/01 03:52:54;;;;;;;;;;;12.00;99.90;;;;;;4858238;29;19936;-75
2021/07/01 03:55:23;;;;;;;;;;;12.00;99.90;;;;;;4877349;29;20405;-75
2021/07/01 03:57:51;;;;;;;;;;;12.00;99.90;;;;;;4900003;29;19934;-75
2021/07/01 04:00:18;;;;;;;;;;;12.00;99.90;;;;;;4884452;29;19933;-75
2021/07/01 04:02:55;;;;;;;;;;;12.00;99.90;;;;;;4899777;29;19931;-76
2021/07/01 04:05:49;;;;;;;;;;;12.10;99.90;;;;;;4903742;29;20393;-75
2021/07/01 04:08:16;;;;;;;;;;;12.10;99.90;;;;;;4884335;29;20237;-75
2021/07/01 04:10:49;;;;;;;;;;;12.10;99.90;;;;;;4899808;29;19927;-75
2021/07/01 04:13:22;;;;;;;;;;;12.10;99.90;;;;;;4897064;29;19931;-75
2021/07/01 04:16:07;;;;;;;;;;;12.10;99.90;;;;;;4906488;29;19979;-76
2021/07/01 04:18:52;;;;;;;;;;;12.10;99.90;;;;;;4902083;29;19941;-75
2021/07/01 04:21:59;;;;;;;;;;;12.10;99.90;;;;;;4846684;29;19968;-74
2021/07/01 04:24:49;;;;;;;;;;;12.10;99.90;;;;;;4900134;29;19986;-75
2021/07/01 04:27:26;;;;;;;;;;;12.10;99.90;;;;;;4900090;29;19930;-75
2021/07/01 04:29:58;;;;;;;;;;;12.10;99.90;;;;;;4899820;29;19935;-74
2021/07/01 04:32:30;;;;;;;;;;;12.10;99.90;;;;;;4883232;29;19959;-75
2021/07/01 04:35:01;;;;;;;;;;;12.10;99.90;;;;;;4899368;29;19954;-75
2021/07/01 04:37:28;;;;;;;;;;;12.10;99.90;;;;;;4899241;29;19931;-75
2021/07/01 04:39:56;;;;;;;;;;;12.10;99.90;;;;;;4883871;29;20362;-75
2021/07/01 04:42:38;;;;;;;;;;;12.10;99.90;;;;;;4898600;29;19931;-75
2021/07/01 04:45:07;;;;;;;;;;;12.00;99.90;;;;;;4883871;29;19931;-75
2021/07/01 04:47:35;;;;;;;;;;;12.00;99.90;;;;;;4883585;29;19966;-75
2021/07/01 04:50:04;;;;;;;;;;;12.10;99.90;;;;;;4916533;29;19934;-75
2021/07/01 04:52:40;;;;;;;;;;;12.10;99.90;;;;;;4899891;29;19927;-75
2021/07/01 04:55:23;;;;;;;;;;;12.10;99.90;;;;;;4914641;29;20412;-75
2021/07/01 04:58:13;;;;;;;;;;;12.10;99.90;;;;;;4900159;29;20005;-75
2021/07/01 05:00:52;;;;;;;;;;;12.10;99.90;;;;;;4899142;29;20004;-75
2021/07/01 05:03:44;;;;;;;;;;;12.20;99.90;;;;;;4905655;29;19927;-74
2021/07/01 05:06:16;;;;;;;;;;;12.20;99.90;;;;;;4900274;29;19942;-75
2021/07/01 05:08:47;;;;;;;;;;;12.20;99.90;;;;;;4900006;29;20390;-75
2021/07/01 05:11:14;;;;;;;;;;;12.20;99.90;;;;;;4883560;29;19932;-75
2021/07/01 05:13:41;;;;;;;;;;;12.20;99.90;;;;;;4896055;29;19974;-75
2021/07/01 05:16:15;;;;;;;;;;;12.20;99.90;;;;;;4898212;29;20038;-75
2021/07/01 05:18:42;;;;;;;;;;;12.20;99.90;;;;;;4897501;29;20462;-75
2021/07/01 05:21:15;;;;;;;;;;;12.20;99.90;;;;;;4883499;29;19935;-75
2021/07/01 05:24:06;;;;;;;;;;;12.20;99.90;;;;;;4901617;29;20401;-75
2021/07/01 05:26:56;;;;;;;;;;;12.30;99.90;;;;;;4901830;29;19938;-75
2021/07/01 05:29:41;;;;;;;;;;;12.30;99.90;;;;;;4901675;29;20343;-74
2021/07/01 05:32:26;;;;;;;;;;;12.20;99.90;;;;;;4901533;29;19971;-75
2021/07/01 05:35:11;;;;;;;;;;;12.30;99.90;;;;;;4885658;29;20014;-75
2021/07/01 05:37:51;;;;;;;;;;;12.30;99.90;;;;;;4884844;29;19927;-75
2021/07/01 05:40:25;;;;;;;;;;;12.30;99.90;;;;;;4915340;29;19962;-75
2021/07/01 05:42:53;;;;;;;;;;;12.40;99.90;;;;;;4882513;29;19927;-76
2021/07/01 05:45:20;;;;;;;;;;;12.40;99.90;;;;;;4898393;29;20283;-75
2021/07/01 05:47:46;;;;;;;;;;;12.40;99.90;;;;;;4898408;29;20400;-74
2021/07/01 05:50:13;;;;;;;;;;;12.50;99.90;;;;;;4914862;29;19927;-75
2021/07/01 05:52:42;;;;;;;;;;;12.60;99.90;;;;;;4897916;29;19927;-75
2021/07/01 05:55:14;;;;;;;;;;;12.60;99.90;;;;;;4899337;29;20309;-75
2021/07/01 05:57:41;;;;;;;;;;;12.60;99.90;;;;;;4898430;29;20449;-75
2021/07/01 06:00:14;;;;;;;;;;;12.60;99.90;;;;;;4883670;29;19970;-75
2021/07/01 06:02:48;;;;;;;;;;;12.70;99.90;;;;;;4912506;29;19970;-74
2021/07/01 06:05:15;;;;;;;;;;;12.60;99.90;;;;;;4898505;29;20013;-75
2021/07/01 06:08:00;;;;;;;;;;;12.60;99.90;;;;;;4893345;29;19934;-74
2021/07/01 06:10:28;;;;;;;;;;;12.60;99.90;;;;;;4914966;29;20373;-75
2021/07/01 06:12:55;;;;;;;;;;;12.70;99.90;;;;;;4914427;29;20255;-75
2021/07/01 06:15:27;;;;;;;;;;;12.70;99.90;;;;;;4897831;29;19927;-74
2021/07/01 06:17:59;;;;;;;;;;;12.70;99.90;;;;;;4896583;29;20017;-75
2021/07/01 06:20:26;;;;;;;;;;;12.70;99.90;;;;;;4897645;29;19991;-74
2021/07/01 06:22:53;;;;;;;;;;;12.70;99.90;;;;;;4897038;29;20018;-75
2021/07/01 06:25:20;;;;;;;;;;;12.70;99.90;;;;;;4898396;29;19931;-75
2021/07/01 06:27:52;;;;;;;;;;;12.70;99.90;;;;;;4897020;29;20289;-75
2021/07/01 06:30:20;;;;;;;;;;;12.80;99.90;;;;;;4879971;29;20377;-75
2021/07/01 06:32:54;;;;;;;;;;;12.80;99.90;;;;;;4911882;29;19927;-75
2021/07/01 06:35:25;;;;;;;;;;;12.80;99.90;;;;;;4913576;29;20041;-75
2021/07/01 06:37:57;;;;;;;;;;;12.90;99.90;;;;;;4895089;29;19928;-74
2021/07/01 06:40:49;;;;;;;;;;;12.90;99.90;;;;;;4897039;29;19982;-74
2021/07/01 06:43:34;;;;;;;;;;;12.90;99.90;;;;;;4882493;29;19939;-75
2021/07/01 06:46:30;;;;;;;;;;;12.90;99.90;;;;;;4897746;29;19934;-75
2021/07/01 06:49:20;;;;;;;;;;;12.90;99.90;;;;;;4867283;29;20314;-75
2021/07/01 06:52:06;;;;;;;;;;;13.00;99.90;;;;;;4896548;29;19935;-75
2021/07/01 06:54:56;;;;;;;;;;;13.00;99.90;;;;;;4883499;29;19934;-75
2021/07/01 06:57:54;;;;;;;;;;;13.00;99.90;;;;;;4882134;29;19935;-75
2021/07/01 07:00:21;;;;;;;;;;;13.10;99.90;;;;;;4879577;29;20077;-75
2021/07/01 07:02:48;;;;;;;;;;;13.10;99.90;;;;;;4889485;29;20285;-75
2021/07/01 07:05:20;;;;;;;;;;;13.10;99.90;;;;;;4899910;29;19927;-76
2021/07/01 07:07:47;;;;;;;;;;;13.20;99.90;;;;;;4886120;29;19927;-75
2021/07/01 07:10:16;;;;;;;;;;;13.20;99.90;;;;;;4885812;29;20409;-75
2021/07/01 07:12:49;;;;;;;;;;;13.20;99.90;;;;;;4917999;29;19931;-75
2021/07/01 07:15:28;;;;;;;;;;;13.20;99.90;;;;;;4886966;29;19970;-75
2021/07/01 07:18:01;;;;;;;;;;;13.30;99.90;;;;;;4901392;29;19953;-75
2021/07/01 07:20:34;;;;;;;;;;;13.40;99.90;;;;;;4887423;29;19927;-75
2021/07/01 07:23:07;;;;;;;;;;;13.40;99.90;;;;;;4885602;29;19933;-75
2021/07/01 07:25:41;;;;;;;;;;;13.40;99.90;;;;;;4902279;29;19966;-74
2021/07/01 07:28:08;;;;;;;;;;;13.40;99.90;;;;;;4882350;29;19975;-75
2021/07/01 07:30:40;;;;;;;;;;;13.40;99.90;;;;;;4900842;29;20287;-75
2021/07/01 07:33:09;;;;;;;;;;;13.40;99.90;;;;;;4882769;29;20309;-75
2021/07/01 07:35:40;;;;;;;;;;;13.50;99.90;;;;;;4900606;29;20037;-75
2021/07/01 07:38:07;;;;;;;;;;;13.50;99.90;;;;;;4897820;29;19927;-74
2021/07/01 07:40:37;;;;;;;;;;;13.50;99.90;;;;;;4882153;29;19955;-75
2021/07/01 07:43:13;;;;;;;;;;;13.50;99.90;;;;;;4880120;29;19942;-75
2021/07/01 07:45:49;;;;;;;;;;;13.40;99.90;;;;;;4898536;29;19932;-75
2021/07/01 07:48:21;;;;;;;;;;;13.50;99.90;;;;;;4899559;29;19927;-75
2021/07/01 07:50:53;;;;;;;;;;;13.50;99.90;;;;;;4901714;29;19927;-75
2021/07/01 07:53:29;;;;;;;;;;;13.60;99.90;;;;;;4915182;29;19946;-75
2021/07/01 07:56:06;;;;;;;;;;;13.60;99.90;;;;;;4899688;29;19967;-74
2021/07/01 07:58:43;;;;;;;;;;;13.50;99.90;;;;;;4897119;29;19963;-74
2021/07/01 08:01:15;;;;;;;;;;;13.50;99.90;;;;;;4912374;29;19932;-75
2021/07/01 08:03:50;;;;;;;;;;;13.50;99.90;;;;;;4871821;29;19927;-75
2021/07/01 08:06:18;;;;;;;;;;;13.50;99.90;;;;;;4894655;29;19966;-75
2021/07/01 08:08:52;;;;;;;;;;;13.60;99.90;;;;;;4881732;29;19976;-74
2021/07/01 08:11:24;;;;;;;;;;;13.70;99.90;;;;;;4897591;29;19969;-75
2021/07/01 08:13:55;;;;;;;;;;;13.80;99.90;;;;;;4886391;29;19934;-74
2021/07/01 08:16:27;;;;;;;;;;;14.00;99.90;;;;;;4895523;29;19933;-76
2021/07/01 08:18:59;;;;;;;;;;;14.10;99.90;;;;;;4896946;29;19935;-75
2021/07/01 08:21:31;;;;;;;;;;;14.20;99.90;;;;;;4911420;29;19927;-75
2021/07/01 08:23:58;;;;;;;;;;;14.30;99.90;;;;;;4872197;29;19970;-75
2021/07/01 08:26:30;;;;;;;;;;;14.50;99.90;;;;;;4912372;29;19927;-76
2021/07/01 08:29:04;;;;;;;;;;;14.60;99.90;;;;;;4916075;29;20381;-75
2021/07/01 08:31:31;;;;;;;;;;;14.60;99.90;;;;;;4927876;29;19927;-75
2021/07/01 08:34:06;;;;;;;;;;;14.60;99.90;;;;;;4890786;29;20041;-75
2021/07/01 08:36:35;;;;;;;;;;;14.60;99.90;;;;;;4912115;29;19927;-75
2021/07/01 08:39:05;;;;;;;;;;;14.60;99.90;;;;;;4894150;29;20026;-75
2021/07/01 08:41:32;;;;;;;;;;;14.50;99.90;;;;;;4896049;29;19955;-75
2021/07/01 08:44:08;;;;;;;;;;;14.60;99.90;;;;;;4890131;29;20291;-75
2021/07/01 08:46:48;;;;;;;;;;;14.60;99.90;;;;;;4930980;29;19927;-74
2021/07/01 08:49:29;;;;;;;;;;;14.60;99.90;;;;;;4895917;29;19927;-75
2021/07/01 08:52:00;;;;;;;;;;;14.60;99.90;;;;;;4880233;29;20385;-75
2021/07/01 08:54:30;;;;;;;;;;;14.70;99.90;;;;;;4887206;29;20104;-75
2021/07/01 08:57:03;;;;;;;;;;;14.70;99.90;;;;;;4891422;29;20023;-75
2021/07/01 08:59:53;;;;;;;;;;;14.70;99.90;;;;;;4899233;29;19937;-75
2021/07/01 09:02:24;;;;;;;;;;;14.70;99.90;;;;;;4895766;29;19963;-75
2021/07/01 09:05:02;;;;;;;;;;;14.80;99.90;;;;;;4904358;29;20022;-75
2021/07/01 09:07:36;;;;;;;;;;;14.80;99.90;;;;;;4915585;29;20014;-75
2021/07/01 09:10:06;;;;;;;;;;;14.90;99.90;;;;;;4898933;29;19927;-75
2021/07/01 09:12:33;;;;;;;;;;;14.80;99.90;;;;;;4919411;29;19934;-75
2021/07/01 09:15:08;;;;;;;;;;;14.80;99.90;;;;;;4898325;29;19927;-75
2021/07/01 09:17:35;;;;;;;;;;;14.70;99.90;;;;;;4895500;29;19927;-75
2021/07/01 09:20:09;;;;;;;;;;;14.70;99.90;;;;;;4880135;29;20385;-75
2021/07/01 09:22:36;;;;;;;;;;;14.80;99.90;;;;;;4880072;29;19999;-75
2021/07/01 09:25:04;;;;;;;;;;;14.90;99.90;;;;;;4896313;29;19933;-75
2021/07/01 09:27:39;;;;;;;;;;;14.80;99.90;;;;;;4883797;29;20282;-75
2021/07/01 09:30:06;;;;;;;;;;;14.90;99.90;;;;;;4898423;29;20061;-75
2021/07/01 09:32:38;;;;;;;;;;;14.90;99.90;;;;;;4918132;29;20018;-75
2021/07/01 09:35:05;;;;;;;;;;;14.80;99.90;;;;;;4890937;29;20347;-74
2021/07/01 09:37:45;;;;;;;;;;;14.80;99.90;;;;;;4883762;29;20549;-75
2021/07/01 09:40:13;;;;;;;;;;;14.80;99.90;;;;;;4914372;29;19967;-75
2021/07/01 09:42:40;;;;;;;;;;;14.70;99.90;;;;;;4878760;29;19967;-75
2021/07/01 09:45:13;;;;;;;;;;;14.70;99.90;;;;;;4922572;29;20013;-75
2021/07/01 09:47:46;;;;;;;;;;;14.80;99.90;;;;;;4914598;29;19971;-75
2021/07/01 09:50:18;;;;;;;;;;;14.80;99.90;;;;;;4899173;29;20021;-75
2021/07/01 09:52:51;;;;;;;;;;;14.80;99.90;;;;;;4897465;29;20554;-75
2021/07/01 09:55:18;;;;;;;;;;;14.90;99.90;;;;;;4919249;29;19936;-75
2021/07/01 09:57:52;;;;;;;;;;;14.90;99.90;;;;;;4898479;29;20022;-75
2021/07/01 10:00:19;;;;;;;;;;;14.90;99.90;;;;;;4898513;29;19979;-75
2021/07/01 10:03:01;;;;;;;;;;;14.80;99.90;;;;;;4913387;29;20039;-75
2021/07/01 10:05:28;;;;;;;;;;;14.80;99.90;;;;;;4897741;29;19964;-75
2021/07/01 10:07:55;;;;;;;;;;;14.90;99.90;;;;;;4897860;29;19935;-75
2021/07/01 10:10:22;;;;;;;;;;;15.00;99.90;;;;;;4914939;29;20370;-75
2021/07/01 10:12:51;;;;;;;;;;;15.10;99.90;;;;;;4896448;29;20466;-75
2021/07/01 10:15:24;;;;;;;;;;;15.20;99.90;;;;;;4899058;29;19927;-75
2021/07/01 10:18:09;;;;;;;;;;;15.40;99.90;;;;;;4879177;29;20461;-75
2021/07/01 10:20:36;;;;;;;;;;;15.50;99.90;;;;;;4910490;29;20022;-75
2021/07/01 10:23:23;;;;;;;;;;;15.50;99.90;;;;;;4880243;29;20317;-75
2021/07/01 10:25:55;;;;;;;;;;;15.50;99.90;;;;;;4906598;29;19963;-75
2021/07/01 10:28:30;;;;;;;;;;;15.40;99.90;;;;;;4897659;29;20021;-75
2021/07/01 10:30:59;;;;;;;;;;;15.40;99.90;;;;;;4897784;29;19978;-75
2021/07/01 10:33:34;;;;;;;;;;;15.30;99.90;;;;;;4894444;29;20306;-74
2021/07/01 10:36:13;;;;;;;;;;;15.30;99.90;;;;;;4915166;29;19937;-75
2021/07/01 10:38:44;;;;;;;;;;;15.30;99.90;;;;;;4901291;29;20378;-75
2021/07/01 10:41:45;;;;;;;;;;;15.40;99.90;;;;;;4900876;29;19954;-75
2021/07/01 10:44:22;;;;;;;;;;;15.30;99.90;;;;;;4869144;29;19927;-75
2021/07/01 10:46:49;;;;;;;;;;;15.20;99.90;;;;;;4907199;29;20018;-75
2021/07/01 10:49:30;;;;;;;;;;;15.20;99.90;;;;;;4899219;29;20046;-73
2021/07/01 10:52:03;;;;;;;;;;;15.10;99.90;;;;;;4885441;29;19928;-74
2021/07/01 10:54:34;;;;;;;;;;;15.10;99.90;;;;;;4906412;29;19933;-75
2021/07/01 10:57:08;;;;;;;;;;;15.10;99.90;;;;;;4884574;29;19945;-76
2021/07/01 11:00:04;;;;;;;;;;;15.00;99.90;;;;;;4899482;29;20046;-75
2021/07/01 11:02:31;;;;;;;;;;;15.00;99.90;;;;;;4855843;29;20409;-76
2021/07/01 11:05:05;;;;;;;;;;;14.90;99.90;;;;;;4899256;29;19931;-75
2021/07/01 11:07:44;;;;;;;;;;;15.00;99.90;;;;;;4917541;29;20182;-75
2021/07/01 11:10:12;;;;;;;;;;;15.10;99.90;;;;;;4884588;29;20021;-75
2021/07/01 11:12:47;;;;;;;;;;;15.10;99.90;;;;;;4896015;29;19954;-76
2021/07/01 11:15:14;;;;;;;;;;;15.10;99.90;;;;;;4896779;29;19979;-75
2021/07/01 11:17:41;;;;;;;;;;;15.20;99.90;;;;;;4895082;29;19953;-75
2021/07/01 11:20:11;;;;;;;;;;;15.30;99.90;;;;;;4893307;29;20466;-75
2021/07/01 11:22:47;;;;;;;;;;;15.40;99.90;;;;;;4898999;29;20402;-76
2021/07/01 11:25:44;;;;;;;;;;;15.40;99.90;;;;;;4874522;29;20365;-75
2021/07/01 11:28:23;;;;;;;;;;;15.40;99.90;;;;;;4888923;29;20057;-76
2021/07/01 11:31:02;;;;;;;;;;;15.50;99.90;;;;;;4884797;29;20256;-76
2021/07/01 11:33:34;;;;;;;;;;;15.60;99.90;;;;;;4883912;29;20434;-75
2021/07/01 11:36:08;;;;;;;;;;;15.50;99.90;;;;;;4925067;29;20469;-75
2021/07/01 11:38:41;;;;;;;;;;;15.60;99.90;;;;;;4917007;29;19927;-75
2021/07/01 11:41:14;;;;;;;;;;;15.70;99.90;;;;;;4900625;29;19927;-75
2021/07/01 11:43:51;;;;;;;;;;;15.70;99.90;;;;;;4897437;29;20010;-75
2021/07/01 11:46:23;;;;;;;;;;;15.80;99.90;;;;;;4895417;29;20013;-76
2021/07/01 11:48:52;;;;;;;;;;;15.90;99.90;;;;;;4914030;29;20021;-75
2021/07/01 11:51:23;;;;;;;;;;;15.90;99.90;;;;;;4882162;29;20354;-75
2021/07/01 11:53:55;;;;;;;;;;;15.90;99.90;;;;;;4896530;29;19927;-76
2021/07/01 11:56:23;;;;;;;;;;;15.80;99.90;;;;;;4881451;29;19931;-75
2021/07/01 11:58:55;;;;;;;;;;;15.80;99.90;;;;;;4915571;29;19927;-75
2021/07/01 12:01:27;;;;;;;;;;;15.80;99.90;;;;;;4900548;29;20314;-76
2021/07/01 12:03:59;;;;;;;;;;;15.80;99.90;;;;;;4893922;29;19991;-76
2021/07/01 12:06:35;;;;;;;;;;;15.90;99.90;;;;;;4896393;29;20018;-75
2021/07/01 12:09:10;;;;;;;;;;;15.80;99.90;;;;;;4884957;29;20022;-75
2021/07/01 12:12:00;;;;;;;;;;;15.90;99.90;;;;;;4895722;29;20007;-75
2021/07/01 12:14:36;;;;;;;;;;;15.80;99.90;;;;;;4918920;29;19931;-75
2021/07/01 12:17:03;;;;;;;;;;;15.70;99.90;;;;;;4891818;29;20034;-75
2021/07/01 12:19:45;;;;;;;;;;;15.70;99.90;;;;;;4883594;29;19962;-75
2021/07/01 12:22:35;;;;;;;;;;;15.60;99.90;;;;;;4895413;29;19933;-75
2021/07/01 12:25:02;;;;;;;;;;;15.50;99.90;;;;;;4888807;29;19974;-74
2021/07/01 12:27:29;;;;;;;;;;;15.50;99.90;;;;;;4930398;29;20364;-76
2021/07/01 12:30:01;;;;;;;;;;;15.70;99.90;;;;;;4900389;29;19931;-76
2021/07/01 12:32:28;;;;;;;;;;;15.60;99.90;;;;;;4899249;29;20545;-75
2021/07/01 12:34:55;;;;;;;;;;;15.70;99.90;;;;;;4899036;29;19991;-76
2021/07/01 12:37:28;;;;;;;;;;;15.70;99.90;;;;;;4924558;29;19937;-75
2021/07/01 12:39:55;;;;;;;;;;;15.80;99.90;;;;;;4897918;29;19970;-75
2021/07/01 12:42:22;;;;;;;;;;;15.80;99.90;;;;;;4905653;29;19927;-76
2021/07/01 12:45:02;;;;;;;;;;;15.80;99.90;;;;;;4905065;29;19927;-75
2021/07/01 12:47:37;;;;;;;;;;;15.70;99.90;;;;;;4898080;29;19973;-75
2021/07/01 12:50:05;;;;;;;;;;;15.70;99.90;;;;;;4897937;29;20021;-76
2021/07/01 12:52:36;;;;;;;;;;;15.70;99.90;;;;;;4917519;29;20027;-75
2021/07/01 12:55:04;;;;;;;;;;;15.60;99.90;;;;;;4888852;29;20017;-75
2021/07/01 12:57:30;;;;;;;;;;;15.50;99.90;;;;;;4929556;29;20025;-75
2021/07/01 12:59:58;;;;;;;;;;;15.40;99.90;;;;;;4898121;29;19931;-76
2021/07/01 13:02:29;;;;;;;;;;;15.30;99.90;;;;;;4894649;29;20415;-75
2021/07/01 13:05:08;;;;;;;;;;;15.30;99.90;;;;;;4888867;29;19931;-75
2021/07/01 13:07:40;;;;;;;;;;;15.30;99.90;;;;;;4914392;29;20482;-75
2021/07/01 13:10:13;;;;;;;;;;;15.30;99.90;;;;;;4898997;29;20022;-75
2021/07/01 13:12:42;;;;;;;;;;;15.30;99.90;;;;;;4895005;29;19935;-76
2021/07/01 13:15:10;;;;;;;;;;;15.30;99.90;;;;;;4914472;29;20072;-75
2021/07/01 13:17:37;;;;;;;;;;;15.40;99.90;;;;;;4894161;29;20395;-75
2021/07/01 13:20:09;;;;;;;;;;;15.40;99.90;;;;;;4893955;29;19959;-75
2021/07/01 13:22:37;;;;;;;;;;;15.40;99.90;;;;;;4878331;29;19938;-76
2021/07/01 13:25:09;;;;;;;;;;;15.40;99.90;;;;;;4879333;29;19928;-75
2021/07/01 13:27:50;;;;;;;;;;;15.50;99.90;;;;;;4864137;29;20409;-76
2021/07/01 13:30:43;;;;;;;;;;;15.40;99.90;;;;;;4879592;29;20018;-76
2021/07/01 13:33:15;;;;;;;;;;;15.40;99.90;;;;;;4895262;29;20035;-76
2021/07/01 13:35:46;;;;;;;;;;;15.50;99.90;;;;;;4879507;29;19974;-75
2021/07/01 13:38:20;;;;;;;;;;;15.70;99.90;;;;;;4895181;29;20022;-75
2021/07/01 13:40:54;;;;;;;;;;;15.80;99.90;;;;;;4879044;29;20462;-76
2021/07/01 13:43:26;;;;;;;;;;;15.70;99.90;;;;;;4893979;29;20545;-75
2021/07/01 13:45:56;;;;;;;;;;;15.70;99.90;;;;;;4879132;29;20022;-76
2021/07/01 13:48:24;;;;;;;;;;;15.70;99.90;;;;;;4889635;29;20422;-75
2021/07/01 13:50:52;;;;;;;;;;;15.70;99.90;;;;;;4897728;29;19931;-75
2021/07/01 13:53:25;;;;;;;;;;;15.70;99.90;;;;;;4897489;29;20103;-75
2021/07/01 13:55:57;;;;;;;;;;;15.70;99.90;;;;;;4897905;29;19927;-75
2021/07/01 13:58:25;;;;;;;;;;;15.80;99.90;;;;;;4929531;29;19973;-75
2021/07/01 14:00:53;;;;;;;;;;;15.80;99.90;;;;;;4913184;29;19927;-75
2021/07/01 14:03:27;;;;;;;;;;;15.80;99.90;;;;;;4882668;29;19935;-75
2021/07/01 14:06:03;;;;;;;;;;;15.80;99.90;;;;;;4909664;29;20021;-75
2021/07/01 14:08:31;;;;;;;;;;;15.70;99.90;;;;;;4902530;29;19927;-75
2021/07/01 14:11:01;;;;;;;;;;;15.60;99.90;;;;;;4905258;29;19943;-75
2021/07/01 14:13:44;;;;;;;;;;;15.60;99.90;;;;;;4910310;29;19927;-75
2021/07/01 14:16:11;;;;;;;;;;;15.60;99.90;;;;;;4908605;29;20018;-75
2021/07/01 14:18:40;;;;;;;;;;;15.50;99.90;;;;;;4886200;29;19935;-75
2021/07/01 14:21:12;;;;;;;;;;;15.40;99.90;;;;;;4886718;29;19926;-75
2021/07/01 14:23:39;;;;;;;;;;;15.40;99.90;;;;;;4901691;29;20363;-75
2021/07/01 14:26:15;;;;;;;;;;;15.40;99.90;;;;;;4918876;29;19931;-75
2021/07/01 14:28:42;;;;;;;;;;;15.40;99.90;;;;;;4902451;29;20022;-76
2021/07/01 14:31:15;;;;;;;;;;;15.40;99.90;;;;;;4885687;29;19986;-76
2021/07/01 14:33:51;;;;;;;;;;;15.50;99.90;;;;;;4898374;29;19939;-75
2021/07/01 14:36:25;;;;;;;;;;;15.50;99.90;;;;;;4910978;29;19981;-76
2021/07/01 14:39:02;;;;;;;;;;;15.50;99.90;;;;;;4897320;29;19931;-76
2021/07/01 14:41:39;;;;;;;;;;;15.60;99.90;;;;;;4896778;29;19962;-75
2021/07/01 14:44:11;;;;;;;;;;;15.70;99.90;;;;;;4901424;29;20026;-76
2021/07/01 14:46:40;;;;;;;;;;;15.90;99.90;;;;;;4916455;29;19955;-75
2021/07/01 14:49:13;;;;;;;;;;;16.10;99.90;;;;;;4899600;29;20305;-74
2021/07/01 14:51:59;;;;;;;;;;;16.40;99.90;;;;;;4883564;29;19935;-76